createdAt,value
2019-03-13T00:01:54.726Z,3.57
2019-03-13T00:07:49.810Z,3.96
2019-03-13T00:13:44.706Z,3.34
2019-03-13T00:19:39.725Z,4.08
2019-03-13T00:25:34.754Z,4.01
2019-03-13T00:31:29.707Z,3.44
2019-03-13T00:37:24.742Z,3.38
2019-03-13T00:43:19.744Z,3.95
2019-03-13T00:49:14.808Z,3.82
2019-03-13T00:55:09.741Z,3.92
2019-03-13T01:01:04.769Z,4.12
2019-03-13T01:06:59.769Z,3.27
2019-03-13T01:12:54.785Z,5.3
2019-03-13T01:18:49.781Z,3.43
2019-03-13T01:24:44.755Z,3.44
2019-03-13T01:30:39.792Z,4.3
2019-03-13T01:36:34.768Z,4.22
2019-03-13T01:42:29.781Z,4.2
2019-03-13T01:48:24.792Z,5
2019-03-13T01:54:19.784Z,4.57
2019-03-13T02:00:14.785Z,5.33
2019-03-13T02:06:09.769Z,4.78
2019-03-13T02:12:04.790Z,4.31
2019-03-13T02:17:59.771Z,4.25
2019-03-13T02:23:54.785Z,3.75
2019-03-13T02:29:49.824Z,4.19
2019-03-13T02:35:44.797Z,3.92
2019-03-13T02:41:39.792Z,3.66
2019-03-13T02:47:34.864Z,3.92
2019-03-13T02:53:29.866Z,3.37
2019-03-13T02:59:24.804Z,3.61
2019-03-13T03:05:19.817Z,3.4
2019-03-13T03:11:14.841Z,3.57
2019-03-13T03:17:09.813Z,3.38
2019-03-13T03:23:04.813Z,3.61
2019-03-13T03:28:59.847Z,3.48
2019-03-13T03:34:54.809Z,2.98
2019-03-13T03:40:49.825Z,2.78
2019-03-13T03:46:44.832Z,2.68
2019-03-13T03:52:39.853Z,2.36
2019-03-13T03:58:34.830Z,2.8
2019-03-13T04:04:29.843Z,2.99
2019-03-13T04:10:24.921Z,3.17
2019-03-13T04:16:19.840Z,3.17
2019-03-13T04:22:14.822Z,2.56
2019-03-13T04:28:09.895Z,2.58
2019-03-13T04:34:04.850Z,2.3
2019-03-13T04:39:59.842Z,2.78
2019-03-13T04:45:54.913Z,2.85
2019-03-13T04:51:49.864Z,2.97
2019-03-13T04:57:44.904Z,3.2
2019-03-13T05:03:39.905Z,3.85
2019-03-13T05:09:34.874Z,4.56
2019-03-13T05:15:29.876Z,5.15
2019-03-13T05:21:24.866Z,4.83
2019-03-13T05:27:19.870Z,4.78
2019-03-13T05:33:14.901Z,4.37
2019-03-13T05:39:09.918Z,4.47
2019-03-13T05:45:05.188Z,4.3
2019-03-13T05:50:59.904Z,4.68
2019-03-13T05:56:54.894Z,4.18
2019-03-13T06:02:49.879Z,4.03
2019-03-13T06:08:44.935Z,5.6
2019-03-13T06:14:39.890Z,6.85
2019-03-13T06:20:34.912Z,7.03
2019-03-13T06:26:29.944Z,8.54
2019-03-13T06:32:24.949Z,8.88
2019-03-13T06:38:19.923Z,11.96
2019-03-13T06:44:14.935Z,12.3
2019-03-13T06:50:09.935Z,13.47
2019-03-13T06:56:04.913Z,14.27
2019-03-13T07:01:59.915Z,12.71
2019-03-13T07:07:54.936Z,12.54
2019-03-13T07:13:49.991Z,12.4
2019-03-13T07:19:44.943Z,12.84
2019-03-13T07:25:39.951Z,14.5
2019-03-13T07:31:34.968Z,13.05
2019-03-13T07:37:29.952Z,13.1
2019-03-13T07:43:24.935Z,15.26
2019-03-13T07:49:19.992Z,15.06
2019-03-13T07:55:14.945Z,14.18
2019-03-13T08:01:09.997Z,14.66
2019-03-13T08:07:04.988Z,14.36
2019-03-13T08:12:59.966Z,14.97
2019-03-13T08:18:54.985Z,13.8
2019-03-13T08:24:50.009Z,14.53
2019-03-13T08:30:44.966Z,14.34
2019-03-13T08:36:40.773Z,16.27
2019-03-13T08:42:34.956Z,15.63
2019-03-13T08:48:29.966Z,14.5
2019-03-13T08:54:24.966Z,14.04
2019-03-13T09:00:19.975Z,14.88
2019-03-13T09:06:15.004Z,14.13
2019-03-13T09:12:10.044Z,13.66
2019-03-13T09:18:05.001Z,12.71
2019-03-13T09:23:59.991Z,12.5
2019-03-13T09:29:54.995Z,13.16
2019-03-13T09:35:50.004Z,12.85
2019-03-13T09:41:45.034Z,13.43
2019-03-13T09:47:40.004Z,13.8
2019-03-13T09:53:35.046Z,14.03
2019-03-13T09:59:42.314Z,12.55
2019-03-13T10:05:25.035Z,12.43
2019-03-13T10:11:20.035Z,14.68
2019-03-13T10:17:15.086Z,17.16
2019-03-13T10:23:10.043Z,15.66
2019-03-13T10:29:05.036Z,17.93
2019-03-13T10:35:00.046Z,15.99
2019-03-13T10:40:55.042Z,16.32
2019-03-13T10:46:50.045Z,16.35
2019-03-13T10:52:45.058Z,18.37
2019-03-13T10:58:40.046Z,17.82
2019-03-13T11:04:35.054Z,15.61
2019-03-13T11:10:30.055Z,17.2
2019-03-13T11:16:25.060Z,17.65
2019-03-13T11:22:20.055Z,18.19
2019-03-13T11:28:15.073Z,17.48
2019-03-13T11:34:10.080Z,18.22
2019-03-13T11:40:05.114Z,19.46
2019-03-13T11:46:00.067Z,18.43
2019-03-13T11:51:55.080Z,14.86
2019-03-13T11:57:50.114Z,19.34
2019-03-13T12:03:45.105Z,29.49
2019-03-13T12:09:40.135Z,29.27
2019-03-13T12:15:35.086Z,26.73
2019-03-13T12:21:30.128Z,32.48
2019-03-13T12:27:25.112Z,29.21
2019-03-13T12:33:20.096Z,25.79
2019-03-13T12:39:15.122Z,27.56
2019-03-13T12:45:10.156Z,27.46
2019-03-13T12:51:05.096Z,27
2019-03-13T12:57:00.135Z,26.27
2019-03-13T13:02:55.170Z,25.76
2019-03-13T13:08:50.162Z,24.37
2019-03-13T13:14:45.120Z,21.87
2019-03-13T13:20:40.149Z,21.3
2019-03-13T13:26:35.120Z,20.61
2019-03-13T13:32:30.187Z,104.23
2019-03-13T13:38:25.143Z,55.61
2019-03-13T13:44:20.213Z,23.31
2019-03-13T13:50:15.150Z,23.52
2019-03-13T13:56:10.136Z,21.36
2019-03-13T14:02:05.156Z,19.58
2019-03-13T14:08:00.168Z,13.13
2019-03-13T14:13:55.160Z,4.81
2019-03-13T14:19:50.156Z,4.37
2019-03-13T14:25:45.165Z,3.33
2019-03-13T14:31:40.168Z,2.81
2019-03-13T14:37:35.171Z,2.54
2019-03-13T14:43:30.252Z,5.19
2019-03-13T14:49:25.183Z,9.32
2019-03-13T14:55:20.195Z,10.91
2019-03-13T15:01:15.215Z,12.06
2019-03-13T15:07:10.189Z,15.04
2019-03-13T15:13:05.188Z,14.89
2019-03-13T15:19:00.190Z,13.94
2019-03-13T15:24:55.214Z,11.79
2019-03-13T15:30:50.218Z,5.82
2019-03-13T15:36:45.209Z,3.72
2019-03-13T15:42:40.219Z,3.01
2019-03-13T15:48:35.204Z,2.73
2019-03-13T15:54:30.243Z,2.52
2019-03-13T16:00:25.279Z,2.6
2019-03-13T16:06:20.226Z,4.55
2019-03-13T16:12:15.291Z,5.69
2019-03-13T16:18:10.229Z,8.73
2019-03-13T16:24:05.269Z,25.5
2019-03-13T16:30:00.439Z,14.47
2019-03-13T16:35:55.253Z,9.13
2019-03-13T16:41:50.268Z,7.54
2019-03-13T16:47:45.440Z,7.77
2019-03-13T16:53:40.296Z,7.06
2019-03-13T16:59:35.300Z,9.43
2019-03-13T17:05:30.281Z,10.97
2019-03-13T17:11:25.319Z,11.75
2019-03-13T17:17:20.259Z,11.67
2019-03-13T17:23:15.276Z,12.14
2019-03-13T17:29:10.275Z,17.33
2019-03-13T17:35:05.288Z,19.37
2019-03-13T17:41:00.325Z,20.5
2019-03-13T17:46:55.323Z,20.81
2019-03-13T17:52:50.320Z,20.98
2019-03-13T17:58:45.314Z,16.73
2019-03-13T18:04:40.316Z,16.11
2019-03-13T18:10:35.303Z,15.17
2019-03-13T18:16:30.323Z,15.06
2019-03-13T18:22:25.311Z,13.96
2019-03-13T18:28:20.352Z,14.34
2019-03-13T18:34:15.328Z,7.67
2019-03-13T18:40:10.314Z,4.97
2019-03-13T18:46:05.308Z,3.51
2019-03-13T18:52:00.338Z,3.45
2019-03-13T18:57:55.324Z,6.57
2019-03-13T19:03:50.316Z,7.63
2019-03-13T19:09:45.435Z,6.57
2019-03-13T19:15:40.607Z,5.72
2019-03-13T19:21:35.386Z,4.16
2019-03-13T19:27:30.374Z,2.75
2019-03-13T19:33:25.409Z,2.11
2019-03-13T19:39:22.563Z,1.78
2019-03-13T19:45:15.398Z,1.54
2019-03-13T19:51:10.340Z,12.22
2019-03-13T19:57:05.386Z,7.35
2019-03-13T20:03:00.731Z,6.48
2019-03-13T20:08:55.379Z,5.51
2019-03-13T20:14:50.373Z,3.94
2019-03-13T20:20:45.370Z,3.07
2019-03-13T20:26:40.362Z,2.77
2019-03-13T20:32:35.381Z,2.93
2019-03-13T20:38:30.441Z,4.91
2019-03-13T20:44:25.379Z,3.64
2019-03-13T20:50:20.400Z,4.14
2019-03-13T20:56:15.400Z,5.01
2019-03-13T21:02:10.399Z,8.91
2019-03-13T21:08:05.413Z,8.29
2019-03-13T21:14:00.480Z,6.61
2019-03-13T21:19:55.427Z,6.55
2019-03-13T21:25:50.398Z,8.13
2019-03-13T21:31:45.437Z,8.27
2019-03-13T21:37:40.416Z,9.23
2019-03-13T21:43:35.402Z,8.73
2019-03-13T21:49:30.421Z,10.94
2019-03-13T21:55:27.231Z,10.55
2019-03-13T22:01:20.833Z,12.99
2019-03-13T22:07:15.440Z,16.16
2019-03-13T22:13:10.420Z,14.65
2019-03-13T22:19:05.411Z,13.97
2019-03-13T22:25:00.448Z,13.92
2019-03-13T22:30:55.425Z,14.6
2019-03-13T22:36:50.439Z,14.68
2019-03-13T22:42:45.529Z,14.67
2019-03-13T22:48:40.434Z,13.7
2019-03-13T22:54:35.596Z,13.57
2019-03-13T23:00:30.476Z,13.88
2019-03-13T23:06:25.458Z,13.39
2019-03-13T23:12:20.459Z,14.04
2019-03-13T23:18:17.979Z,14.23
2019-03-13T23:24:10.493Z,13.92
2019-03-13T23:30:05.499Z,13.72
2019-03-13T23:36:00.490Z,13.13
2019-03-13T23:41:55.466Z,12.46
2019-03-13T23:47:50.493Z,14.62
2019-03-13T23:53:45.503Z,14.64
2019-03-13T23:59:40.490Z,14.37
